Wednesday, November 21, 2018, 4:59 AM EST
Back to Local

KOXB, Ocean City Municipal Airport

Location: Berlin, MD, United States Lat: 38.317
Local Time: 4:59 AM EST ( 9:59 GMT) Lon: -75.117
Time Zone: US/Eastern Elev: 13 ft

Show me the last for .
Show Decoded

2018-11-21 03:53 METAR KOXB 210853Z AUTO 33003KT 10SM CLR M01/M02 A3015 RMK AO2 SLP211 T10111022
                 53001 =
2018-11-21 02:53 METAR KOXB 210753Z AUTO 31004KT 10SM CLR 01/M02 A3015 RMK AO2 SLP209 T00111022 =
2018-11-21 01:53 METAR KOXB 210653Z AUTO 31004KT 10SM CLR M01/M01 A3015 RMK AO2 SLP210 T10061011
                 =
2018-11-21 00:53 METAR KOXB 210553Z AUTO 00000KT 10SM CLR 01/M02 A3015 RMK AO2 SLP209 T00061017
                 10072 20006 50006 =
2018-11-20 23:53 METAR KOXB 210453Z AUTO 31004KT 10SM CLR 03/M01 A3016 RMK AO2 SLP211 T00281011
                 401390028 =
2018-11-20 22:53 METAR KOXB 210353Z AUTO 31004KT 10SM CLR 04/M01 A3014 RMK AO2 SLP207 T00391011 =
2018-11-20 21:53 METAR KOXB 210253Z AUTO 33006KT 10SM CLR 04/M01 A3013 RMK AO2 SLP203 T00441006
                 51019 =
2018-11-20 20:53 METAR KOXB 210153Z AUTO 35007KT 10SM CLR 06/M01 A3012 RMK AO2 SLP197 T00611006 =
2018-11-20 19:53 METAR KOXB 210053Z AUTO 33013G20KT 10SM CLR 07/M01 A3010 RMK AO2 SLP192
                 T00721006 =
2018-11-20 18:53 METAR KOXB 202353Z AUTO 33005KT 10SM CLR 07/00 A3008 RMK AO2 SLP184 T00720000
                 10133 20072 51034 =
2018-11-20 17:53 METAR KOXB 202253Z AUTO 33011G15KT 10SM CLR 09/00 A3005 RMK AO2 SLP174 T00890000
                 =
2018-11-20 16:53 METAR KOXB 202153Z AUTO 33012G18KT 10SM OVC080 10/01 A3001 RMK AO2 SLP162
                 T01000006 =
2018-11-20 15:53 METAR KOXB 202053Z AUTO 32013G16KT 10SM CLR 12/01 A2998 RMK AO2 SLP150 T01170011
                 53017 =
2018-11-20 14:53 METAR KOXB 201953Z AUTO 31014G22KT 10SM FEW038 BKN080 12/03 A2995 RMK AO2 SLP140
                 T01220033 =
2018-11-20 13:53 METAR KOXB 201853Z AUTO 33008KT 10SM FEW033 OVC080 12/05 A2993 RMK AO2 SLP136
                 T01220050 =
2018-11-20 12:53 METAR KOXB 201753Z AUTO 33007KT 10SM BKN070 12/06 A2993 RMK AO2 SLP133 T01220061
                 10139 20100 50004 =
2018-11-20 11:53 METAR KOXB 201653Z AUTO 34010KT 10SM SCT027 BKN050 OVC075 13/07 A2993 RMK AO2
                 SLP134 T01330072 =
2018-11-20 10:53 METAR KOXB 201553Z AUTO 30008KT 280V340 10SM FEW019 BKN090 OVC110 14/08 A2993
                 RMK AO2 SLP136 T01390083 =
2018-11-20 09:53 METAR KOXB 201453Z AUTO 33010KT 9SM BKN100 13/11 A2991 RMK AO2 SLP129 T01280106
                 51007 =
2018-11-20 08:53 METAR KOXB 201353Z AUTO 29004KT 7SM OVC095 11/10 A2991 RMK AO2 SLP128 T01110100
                 =
2018-11-20 08:00 METAR KOXB 201300Z AUTO 29006KT 4SM BR FEW005 OVC095 11/10 A2990 RMK AO2
                 T01060100 =
2018-11-20 07:53 METAR KOXB 201253Z AUTO 28006KT 4SM BR OVC095 11/10 A2991 RMK AO2 SLP126
                 T01060100 =
2018-11-20 06:53 METAR KOXB 201153Z AUTO 28006KT 5SM BR FEW095 10/09 A2989 RMK AO2 SLP122
                 T01000094 10106 20083 53004 =
2018-11-20 06:43 METAR KOXB 201143Z AUTO 28006KT 5SM BR FEW006 SCT095 10/09 A2989 RMK AO2
                 T01000094 =
2018-11-20 05:53 METAR KOXB 201053Z AUTO 26006KT 5SM BR BKN070 OVC090 10/10 A2988 RMK AO2 SLP119
                 T01000100 =
2018-11-20 05:03 METAR KOXB 201003Z AUTO 24008KT 4SM BR SCT004 BKN075 10/09 A2987 RMK AO2
                 T01000094 =

Support USWX by starting your Amazon purchase here.